createdAt,value
2019-04-04T00:01:37.711Z,99078.83
2019-04-04T00:04:07.208Z,99082.28
2019-04-04T00:06:36.655Z,99078.87
2019-04-04T00:09:09.844Z,99082.88
2019-04-04T00:11:39.378Z,99086.33
2019-04-04T00:14:09.068Z,99090.59
2019-04-04T00:16:38.526Z,99094.59
2019-04-04T00:19:07.979Z,99101.60
2019-04-04T00:21:37.553Z,99113.05
2019-04-04T00:24:08.929Z,99116.46
2019-04-04T00:26:38.320Z,99107.71
2019-04-04T00:29:07.770Z,99103.71
2019-04-04T00:31:37.259Z,99081.11
2019-04-04T00:34:06.791Z,99071.77
2019-04-04T00:36:36.272Z,99080.25
2019-04-04T00:39:26.655Z,99082.69
2019-04-04T00:41:56.327Z,99067.72
2019-04-04T00:44:25.775Z,99046.27
2019-04-04T00:46:55.322Z,99073.45
2019-04-04T00:49:24.789Z,99083.49
2019-04-04T00:51:54.238Z,99084.64
2019-04-04T00:54:23.737Z,99083.05
2019-04-04T00:56:53.217Z,99091.97
2019-04-04T00:59:23.055Z,99088.55
2019-04-04T01:01:53.168Z,99079.88
2019-04-04T01:04:22.777Z,99088.21
2019-04-04T01:06:52.183Z,99077.39
2019-04-04T01:09:21.727Z,99084.94
2019-04-04T01:11:51.876Z,99082.53
2019-04-04T01:14:21.482Z,99075.01
2019-04-04T01:16:50.928Z,99074.89
2019-04-04T01:19:39.772Z,99074.81
2019-04-04T01:22:09.297Z,99080.16
2019-04-04T01:24:38.791Z,99076.53
2019-04-04T01:27:08.270Z,99067.64
2019-04-04T01:29:39.000Z,99054.19
2019-04-04T01:32:09.177Z,99054.44
2019-04-04T01:34:38.641Z,99048.97
2019-04-04T01:37:08.107Z,99041.23
2019-04-04T01:39:37.605Z,99041.25
2019-04-04T01:42:07.893Z,99039.89
2019-04-04T01:44:40.163Z,99026.67
2019-04-04T01:47:09.920Z,99024.38
2019-04-04T01:49:39.463Z,99018.80
2019-04-04T01:52:08.905Z,99004.22
2019-04-04T01:54:41.416Z,99018.59
2019-04-04T01:57:10.908Z,99014.59
2019-04-04T01:59:41.980Z,99012.32
2019-04-04T02:02:11.750Z,99012.78
2019-04-04T02:04:41.243Z,99014.84
2019-04-04T02:07:10.697Z,99013.94
2019-04-04T02:09:40.163Z,99007.56
2019-04-04T02:12:09.690Z,99011.44
2019-04-04T02:14:39.167Z,99011.89
2019-04-04T02:17:08.630Z,98996.17
2019-04-04T02:19:38.188Z,98988.30
2019-04-04T02:22:07.739Z,98984.33
2019-04-04T02:24:37.308Z,98971.56
2019-04-04T02:27:07.547Z,98976.36
2019-04-04T02:29:37.014Z,98985.47
2019-04-04T02:32:08.133Z,98979.29
2019-04-04T02:34:38.429Z,98979.75
2019-04-04T02:37:21.339Z,98967.58
2019-04-04T02:39:51.417Z,98957.88
2019-04-04T02:42:22.287Z,98969.27
2019-04-04T02:44:52.455Z,98974.06
2019-04-04T02:47:22.117Z,98985.91
2019-04-04T02:49:51.591Z,98986.82
2019-04-04T02:52:21.077Z,98985.22
2019-04-04T02:54:50.672Z,98997.06
2019-04-04T02:57:22.150Z,99003.67
2019-04-04T02:59:53.519Z,99008.69
2019-04-04T03:02:22.668Z,99012.23
2019-04-04T03:04:52.164Z,99019.06
2019-04-04T03:07:21.605Z,99018.48
2019-04-04T03:09:51.363Z,99000.94
2019-04-04T03:12:20.883Z,98985.22
2019-04-04T03:14:50.876Z,98965.41
2019-04-04T03:17:20.575Z,98957.66
2019-04-04T03:19:50.078Z,98959.70
2019-04-04T03:22:19.507Z,98970.19
2019-04-04T03:24:48.990Z,98965.98
2019-04-04T03:27:18.677Z,98971.32
2019-04-04T03:29:48.161Z,98987.04
2019-04-04T03:32:17.811Z,98987.49
2019-04-04T03:34:51.375Z,98972.02
2019-04-04T03:37:21.508Z,98982.96
2019-04-04T03:39:53.117Z,98995.50
2019-04-04T03:42:22.306Z,98995.59
2019-04-04T03:44:53.255Z,98998.23
2019-04-04T03:47:22.981Z,98990.25
2019-04-04T03:49:56.359Z,98985.00
2019-04-04T03:52:23.691Z,98986.23
2019-04-04T03:54:56.241Z,98973.60
2019-04-04T03:57:24.409Z,98976.42
2019-04-04T03:59:53.908Z,98969.48
2019-04-04T04:02:23.355Z,98966.62
2019-04-04T04:04:52.904Z,98962.19
2019-04-04T04:07:22.399Z,98964.00
2019-04-04T04:09:51.894Z,98964.45
2019-04-04T04:12:21.329Z,98966.50
2019-04-04T04:14:53.813Z,98963.66
2019-04-04T04:17:21.981Z,98954.39
2019-04-04T04:19:51.461Z,98948.23
2019-04-04T04:22:20.916Z,98946.53
2019-04-04T04:24:50.419Z,98949.36
2019-04-04T04:27:19.876Z,98940.22
2019-04-04T04:29:49.357Z,98947.73
2019-04-04T04:32:21.231Z,98949.00
2019-04-04T04:34:50.067Z,98944.56
2019-04-04T04:37:20.364Z,98946.48
2019-04-04T04:39:50.586Z,98942.94
2019-04-04T04:42:21.329Z,98945.45
2019-04-04T04:44:50.971Z,98939.53
2019-04-04T04:47:22.910Z,98934.98
2019-04-04T04:49:55.018Z,98936.34
2019-04-04T04:52:22.823Z,98946.84
2019-04-04T04:54:54.790Z,98943.88
2019-04-04T04:57:29.867Z,98944.47
2019-04-04T04:59:54.910Z,98945.03
2019-04-04T05:02:24.467Z,98945.25
2019-04-04T05:04:53.921Z,98942.18
2019-04-04T05:07:23.418Z,98964.52
2019-04-04T05:09:52.884Z,98947.73
2019-04-04T05:12:22.395Z,98958.58
2019-04-04T05:14:51.844Z,98964.28
2019-04-04T05:17:21.397Z,98976.72
2019-04-04T05:19:50.887Z,98983.42
2019-04-04T05:22:20.395Z,98976.69
2019-04-04T05:25:06.719Z,98970.08
2019-04-04T05:27:21.134Z,98977.81
2019-04-04T05:29:50.644Z,98988.07
2019-04-04T05:32:21.774Z,98982.23
2019-04-04T05:34:51.381Z,98973.46
2019-04-04T05:37:20.824Z,98994.44
2019-04-04T05:39:51.355Z,98989.97
2019-04-04T05:42:21.665Z,98978.91
2019-04-04T05:44:51.125Z,98974.44
2019-04-04T05:47:22.892Z,98974.11
2019-04-04T05:49:52.018Z,98959.49
2019-04-04T05:52:21.530Z,98972.27
2019-04-04T05:54:50.983Z,98972.16
2019-04-04T05:57:20.769Z,98970.41
2019-04-04T05:59:50.254Z,98977.94
2019-04-04T06:02:19.803Z,98977.02
2019-04-04T06:04:51.334Z,98985.12
2019-04-04T06:07:20.500Z,98985.12
2019-04-04T06:09:49.942Z,98991.83
2019-04-04T06:12:19.434Z,98991.12
2019-04-04T06:14:48.894Z,99001.16
2019-04-04T06:17:18.377Z,99006.16
2019-04-04T06:19:47.827Z,99017.23
2019-04-04T06:22:20.777Z,99016.30
2019-04-04T06:24:48.516Z,99014.83
2019-04-04T06:27:18.010Z,99011.38
2019-04-04T06:29:48.294Z,99005.98
2019-04-04T06:32:17.784Z,99002.20
2019-04-04T06:34:47.274Z,99003.66
2019-04-04T06:37:18.054Z,99011.65
2019-04-04T06:39:47.914Z,99013.58
2019-04-04T06:42:17.408Z,99008.05
2019-04-04T06:44:46.866Z,99015.68
2019-04-04T06:47:16.604Z,99011.52
2019-04-04T06:49:47.762Z,99005.78
2019-04-04T06:52:18.451Z,99004.95
2019-04-04T06:54:48.641Z,99012.11
2019-04-04T06:57:18.138Z,99001.68
2019-04-04T06:59:47.586Z,99005.08
2019-04-04T07:02:17.160Z,99004.59
2019-04-04T07:04:46.631Z,99006.48
2019-04-04T07:07:16.231Z,99012.28
2019-04-04T07:09:45.707Z,99007.56
2019-04-04T07:12:22.261Z,99016.30
2019-04-04T07:14:49.371Z,99016.02
2019-04-04T07:17:17.605Z,99019.87
2019-04-04T07:19:47.121Z,99022.58
2019-04-04T07:22:16.611Z,99027.20
2019-04-04T07:24:46.081Z,99019.28
2019-04-04T07:27:16.263Z,99017.86
2019-04-04T07:29:46.470Z,99019.39
2019-04-04T07:32:15.923Z,99019.32
2019-04-04T07:34:45.943Z,99026.94
2019-04-04T07:37:15.503Z,99028.59
2019-04-04T07:39:44.962Z,99025.56
2019-04-04T07:42:15.879Z,99023.34
2019-04-04T07:44:45.660Z,99029.36
2019-04-04T07:47:16.037Z,99034.34
2019-04-04T07:49:46.210Z,99039.98
2019-04-04T07:52:17.185Z,99032.39
2019-04-04T07:54:46.974Z,99032.11
2019-04-04T07:57:17.350Z,99036.88
2019-04-04T07:59:47.662Z,99030.45
2019-04-04T08:02:17.140Z,99031.09
2019-04-04T08:04:46.711Z,99029.59
2019-04-04T08:07:16.279Z,99034.92
2019-04-04T08:09:45.747Z,99044.63
2019-04-04T08:12:15.242Z,99036.03
2019-04-04T08:14:44.710Z,99039.00
2019-04-04T08:17:14.226Z,99051.80
2019-04-04T08:19:43.702Z,99043.56
2019-04-04T08:22:13.336Z,99043.77
2019-04-04T08:24:42.897Z,99029.30
2019-04-04T08:27:12.388Z,99030.17
2019-04-04T08:29:41.848Z,99030.47
2019-04-04T08:32:11.334Z,99032.35
2019-04-04T08:34:40.847Z,99034.59
2019-04-04T08:37:10.311Z,99049.20
2019-04-04T08:39:39.846Z,99051.00
2019-04-04T08:42:09.331Z,99042.76
2019-04-04T08:44:38.866Z,99037.69
2019-04-04T08:47:08.411Z,99044.99
2019-04-04T08:49:37.866Z,99038.89
2019-04-04T08:52:16.584Z,99043.62
2019-04-04T08:54:38.650Z,99044.78
2019-04-04T08:57:08.149Z,99046.16
2019-04-04T08:59:37.636Z,99046.16
2019-04-04T09:02:07.184Z,99044.78
2019-04-04T09:04:36.691Z,99038.47
2019-04-04T09:07:06.150Z,99044.34
2019-04-04T09:09:35.785Z,99052.81
2019-04-04T09:12:05.636Z,99043.75
2019-04-04T09:14:35.122Z,99051.22
2019-04-04T09:17:04.588Z,99050.06
2019-04-04T09:19:34.084Z,99057.16
2019-04-04T09:22:03.573Z,99051.66
2019-04-04T09:24:33.060Z,99051.87
2019-04-04T09:27:02.633Z,99053.89
2019-04-04T09:29:32.092Z,99055.70
2019-04-04T09:32:01.630Z,99053.59
2019-04-04T09:34:31.131Z,99048.73
2019-04-04T09:37:00.599Z,99042.92
2019-04-04T09:39:30.087Z,99045.59
2019-04-04T09:41:59.552Z,99053.75
2019-04-04T09:44:29.047Z,99061.70
2019-04-04T09:47:05.372Z,99056.33
2019-04-04T09:49:29.813Z,99062.92
2019-04-04T09:51:59.319Z,99058.70
2019-04-04T09:54:28.826Z,99058.39
2019-04-04T09:56:58.431Z,99056.50
2019-04-04T09:59:27.945Z,99060.67
2019-04-04T10:01:57.388Z,99063.84
2019-04-04T10:04:26.899Z,99055.37
2019-04-04T10:06:56.433Z,99060.10
2019-04-04T10:09:25.929Z,99062.64
2019-04-04T10:11:55.510Z,99067.41
2019-04-04T10:14:25.135Z,99058.20
2019-04-04T10:16:54.567Z,99060.86
2019-04-04T10:19:24.062Z,99053.44
2019-04-04T10:21:53.529Z,99044.66
2019-04-04T10:24:23.042Z,99048.47
2019-04-04T10:26:52.589Z,99052.70
2019-04-04T10:29:22.201Z,99063.27
2019-04-04T10:31:51.707Z,99052.73
2019-04-04T10:34:21.202Z,99041.39
2019-04-04T10:36:50.771Z,99024.53
2019-04-04T10:39:28.829Z,99013.22
2019-04-04T10:41:51.455Z,99011.30
2019-04-04T10:44:20.970Z,99015.11
2019-04-04T10:46:50.437Z,99018.70
2019-04-04T10:49:19.932Z,99029.05
2019-04-04T10:51:49.432Z,99031.08
2019-04-04T10:54:18.914Z,99030.95
2019-04-04T10:56:48.454Z,99037.34
2019-04-04T10:59:17.981Z,99035.41
2019-04-04T11:01:47.484Z,99036.07
2019-04-04T11:04:17.020Z,99041.85
2019-04-04T11:06:46.476Z,99052.12
2019-04-04T11:09:15.972Z,99065.17
2019-04-04T11:11:45.472Z,99073.86
2019-04-04T11:14:15.001Z,99077.85
2019-04-04T11:16:44.646Z,99076.08
2019-04-04T11:19:14.131Z,99079.47
2019-04-04T11:21:43.600Z,99084.41
2019-04-04T11:24:13.167Z,99073.53
2019-04-04T11:26:42.647Z,99094.01
2019-04-04T11:29:12.151Z,99088.49
2019-04-04T11:31:41.817Z,99087.27
2019-04-04T11:34:11.302Z,99086.28
2019-04-04T11:36:40.787Z,99089.58
2019-04-04T11:39:10.303Z,99091.08
2019-04-04T11:41:39.838Z,99095.55
2019-04-04T11:44:09.391Z,99101.75
2019-04-04T11:46:38.915Z,99093.59
2019-04-04T11:49:08.472Z,99093.53
2019-04-04T11:51:37.926Z,99102.13
2019-04-04T11:54:07.483Z,99117.82
2019-04-04T11:56:37.046Z,99115.59
2019-04-04T11:59:08.120Z,99113.02
2019-04-04T12:01:39.457Z,99109.03
2019-04-04T12:04:09.025Z,99117.09
2019-04-04T12:06:38.605Z,99119.42
2019-04-04T12:09:08.887Z,99140.30
2019-04-04T12:11:38.396Z,99148.00
2019-04-04T12:14:08.039Z,99137.75
2019-04-04T12:16:37.517Z,99133.48
2019-04-04T12:19:07.040Z,99122.66
2019-04-04T12:21:36.700Z,99129.17
2019-04-04T12:24:06.347Z,99135.91
2019-04-04T12:26:35.825Z,99143.02
2019-04-04T12:29:05.430Z,99139.23
2019-04-04T12:31:35.055Z,99128.17
2019-04-04T12:34:04.517Z,99114.39
2019-04-04T12:36:34.035Z,99098.84
2019-04-04T12:39:03.630Z,99100.86
2019-04-04T12:41:33.134Z,99100.11
2019-04-04T12:44:02.618Z,99099.16
2019-04-04T12:46:32.151Z,99097.62
2019-04-04T12:49:01.741Z,99095.50
2019-04-04T12:51:31.206Z,99099.52
2019-04-04T12:54:00.751Z,99109.45
2019-04-04T12:56:30.368Z,99112.20
2019-04-04T12:58:59.867Z,99116.13
2019-04-04T13:01:29.327Z,99101.92
2019-04-04T13:03:58.834Z,99100.06
2019-04-04T13:06:28.305Z,99123.02
2019-04-04T13:08:57.830Z,99123.55
2019-04-04T13:11:27.557Z,99120.90
2019-04-04T13:13:57.123Z,99129.28
2019-04-04T13:16:26.618Z,99146.13
2019-04-04T13:18:56.123Z,99154.33
2019-04-04T13:21:25.696Z,99158.63
2019-04-04T13:23:55.175Z,99164.36
2019-04-04T13:26:24.799Z,99159.48
2019-04-04T13:28:54.268Z,99170.13
2019-04-04T13:31:23.758Z,99177.61
2019-04-04T13:33:53.420Z,99182.91
2019-04-04T13:36:22.940Z,99181.32
2019-04-04T13:38:55.012Z,99183.86
2019-04-04T13:41:23.627Z,99182.09
2019-04-04T13:43:53.611Z,99183.27
2019-04-04T13:46:25.891Z,99192.48
2019-04-04T13:48:54.963Z,99203.05
2019-04-04T13:51:25.636Z,99197.70
2019-04-04T13:53:55.194Z,99196.69
2019-04-04T13:56:24.702Z,99195.91
2019-04-04T13:58:54.193Z,99201.84
2019-04-04T14:01:25.347Z,99211.70
2019-04-04T14:03:55.142Z,99213.50
2019-04-04T14:06:24.664Z,99210.53
2019-04-04T14:08:54.218Z,99213.08
2019-04-04T14:11:23.753Z,99235.47
2019-04-04T14:13:53.269Z,99242.31
2019-04-04T14:16:22.771Z,99240.08
2019-04-04T14:18:52.231Z,99247.48
2019-04-04T14:21:21.849Z,99238.36
2019-04-04T14:23:52.898Z,99230.45
2019-04-04T14:26:22.949Z,99225.67
2019-04-04T14:28:52.410Z,99222.11
2019-04-04T14:31:21.983Z,99225.67
2019-04-04T14:33:51.432Z,99235.16
2019-04-04T14:36:21.059Z,99228.94
2019-04-04T14:38:50.592Z,99227.82
2019-04-04T14:41:20.096Z,99227.69
2019-04-04T14:43:49.589Z,99233.88
2019-04-04T14:46:19.078Z,99231.98
2019-04-04T14:48:48.643Z,99225.91
2019-04-04T14:51:18.258Z,99234.63
2019-04-04T14:53:47.725Z,99255.52
2019-04-04T14:56:17.235Z,99256.08
2019-04-04T14:58:46.689Z,99261.73
2019-04-04T15:01:16.250Z,99271.52
2019-04-04T15:03:45.753Z,99263.41
2019-04-04T15:06:15.241Z,99243.70
2019-04-04T15:08:44.770Z,99240.73
2019-04-04T15:11:23.918Z,99242.10
2019-04-04T15:13:45.477Z,99235.22
2019-04-04T15:16:18.976Z,99228.33
2019-04-04T15:18:48.817Z,99228.33
2019-04-04T15:21:18.445Z,99244.48
2019-04-04T15:23:47.923Z,99253.77
2019-04-04T15:26:17.414Z,99264.06
2019-04-04T15:28:46.976Z,99257.73
2019-04-04T15:31:16.510Z,99262.68
2019-04-04T15:33:46.185Z,99251.66
2019-04-04T15:36:15.679Z,99246.36
2019-04-04T15:38:45.203Z,99260.14
2019-04-04T15:41:15.673Z,99262.89
2019-04-04T15:43:45.201Z,99271.16
2019-04-04T15:46:14.697Z,99283.77
2019-04-04T15:48:44.192Z,99285.40
2019-04-04T15:51:13.840Z,99289.28
2019-04-04T15:53:43.315Z,99290.45
2019-04-04T15:56:12.887Z,99291.02
2019-04-04T15:58:42.365Z,99301.47
2019-04-04T16:01:11.862Z,99305.82
2019-04-04T16:03:41.362Z,99315.12
2019-04-04T16:06:10.916Z,99309.25
2019-04-04T16:08:40.409Z,99300.60
2019-04-04T16:11:09.903Z,99309.30
2019-04-04T16:13:39.363Z,99309.16
2019-04-04T16:16:08.956Z,99299.73
2019-04-04T16:18:38.440Z,99301.54
2019-04-04T16:21:08.163Z,99294.30
2019-04-04T16:23:37.658Z,99299.21
2019-04-04T16:26:07.218Z,99298.22
2019-04-04T16:28:36.860Z,99290.30
2019-04-04T16:31:06.473Z,99286.90
2019-04-04T16:33:36.003Z,99279.58
2019-04-04T16:36:05.718Z,99265.73
2019-04-04T16:38:35.222Z,99253.81
2019-04-04T16:41:04.842Z,99252.39
2019-04-04T16:43:34.405Z,99266.90
2019-04-04T16:46:03.962Z,99284.73
2019-04-04T16:48:33.576Z,99292.35
2019-04-04T16:51:03.250Z,99305.34
2019-04-04T16:53:33.970Z,99307.88
2019-04-04T16:56:03.582Z,99318.91
2019-04-04T16:58:33.086Z,99326.95
2019-04-04T17:01:02.664Z,99326.95
2019-04-04T17:03:34.365Z,99326.95
2019-04-04T17:06:03.696Z,99319.04
2019-04-04T17:08:33.274Z,99324.12
2019-04-04T17:11:02.870Z,99333.11
2019-04-04T17:13:32.362Z,99343.83
2019-04-04T17:16:02.002Z,99346.44
2019-04-04T17:18:31.541Z,99354.00
2019-04-04T17:21:01.184Z,99358.55
2019-04-04T17:23:30.659Z,99358.40
2019-04-04T17:26:00.188Z,99356.66
2019-04-04T17:28:29.902Z,99360.84
2019-04-04T17:30:59.593Z,99364.32
2019-04-04T17:33:29.756Z,99374.45
2019-04-04T17:35:59.334Z,99382.02
2019-04-04T17:38:28.810Z,99389.28
2019-04-04T17:40:58.560Z,99385.28
2019-04-04T17:43:28.076Z,99388.74
2019-04-04T17:45:57.639Z,99386.71
2019-04-04T17:48:28.064Z,99376.08
2019-04-04T17:50:58.001Z,99380.77
2019-04-04T17:53:27.545Z,99388.36
2019-04-04T17:55:57.138Z,99377.73
2019-04-04T17:58:26.654Z,99377.86
2019-04-04T18:00:56.273Z,99363.88
2019-04-04T18:03:25.856Z,99378.79
2019-04-04T18:05:55.423Z,99391.88
2019-04-04T18:08:24.925Z,99407.39
2019-04-04T18:10:54.400Z,99421.70
2019-04-04T18:13:23.904Z,99414.61
2019-04-04T18:15:53.537Z,99422.42
2019-04-04T18:18:23.127Z,99437.33
2019-04-04T18:20:52.671Z,99437.11
2019-04-04T18:23:22.310Z,99439.41
2019-04-04T18:25:51.808Z,99454.33
2019-04-04T18:28:21.320Z,99446.78
2019-04-04T18:30:51.127Z,99438.31
2019-04-04T18:33:20.679Z,99438.80
2019-04-04T18:35:50.220Z,99424.60
2019-04-04T18:38:19.817Z,99440.44
2019-04-04T18:40:49.364Z,99452.37
2019-04-04T18:43:19.117Z,99450.11
2019-04-04T18:45:48.578Z,99449.88
2019-04-04T18:48:18.069Z,99433.84
2019-04-04T18:50:47.637Z,99437.30
2019-04-04T18:53:17.114Z,99446.03
2019-04-04T18:55:46.805Z,99452.61
2019-04-04T18:58:16.218Z,99454.77
2019-04-04T19:00:47.087Z,99453.20
2019-04-04T19:03:16.684Z,99446.15
2019-04-04T19:05:46.397Z,99447.78
2019-04-04T19:08:15.931Z,99448.73
2019-04-04T19:10:45.500Z,99447.72
2019-04-04T19:13:14.991Z,99445.34
2019-04-04T19:15:44.757Z,99465.73
2019-04-04T19:18:14.233Z,99467.84
2019-04-04T19:20:43.781Z,99465.44
2019-04-04T19:23:13.228Z,99458.38
2019-04-04T19:25:42.790Z,99468.92
2019-04-04T19:28:12.302Z,99464.59
2019-04-04T19:30:42.114Z,99477.28
2019-04-04T19:33:11.610Z,99471.58
2019-04-04T19:35:41.062Z,99463.12
2019-04-04T19:38:10.593Z,99469.99
2019-04-04T19:40:40.117Z,99475.48
2019-04-04T19:43:18.020Z,99479.38
2019-04-04T19:45:40.805Z,99476.64
2019-04-04T19:48:10.317Z,99481.31
2019-04-04T19:50:39.769Z,99484.64
2019-04-04T19:53:09.269Z,99477.75
2019-04-04T19:55:42.316Z,99484.59
2019-04-04T19:58:11.022Z,99477.05
2019-04-04T20:00:40.470Z,99487.55
2019-04-04T20:03:10.035Z,99490.05
2019-04-04T20:05:39.508Z,99490.23
2019-04-04T20:08:09.043Z,99482.23
2019-04-04T20:10:38.550Z,99484.38
2019-04-04T20:13:08.086Z,99478.33
2019-04-04T20:15:37.594Z,99485.13
2019-04-04T20:18:07.172Z,99490.36
2019-04-04T20:20:37.288Z,99487.28
2019-04-04T20:23:06.902Z,99495.12
2019-04-04T20:25:36.587Z,99511.77
2019-04-04T20:28:06.081Z,99515.75
2019-04-04T20:30:40.402Z,99515.03
2019-04-04T20:33:10.215Z,99517.66
2019-04-04T20:35:39.679Z,99519.92
2019-04-04T20:38:09.382Z,99525.72
2019-04-04T20:40:38.976Z,99517.39
2019-04-04T20:43:08.481Z,99520.45
2019-04-04T20:45:38.028Z,99524.67
2019-04-04T20:48:07.572Z,99525.58
2019-04-04T20:50:37.135Z,99517.22
2019-04-04T20:53:06.838Z,99516.20
2019-04-04T20:55:36.336Z,99526.91
2019-04-04T20:58:06.100Z,99530.78
2019-04-04T21:00:35.630Z,99539.89
2019-04-04T21:03:05.239Z,99545.10
2019-04-04T21:05:34.863Z,99540.77
2019-04-04T21:08:04.350Z,99546.01
2019-04-04T21:10:33.846Z,99539.39
2019-04-04T21:13:03.445Z,99536.89
2019-04-04T21:15:33.003Z,99528.68
2019-04-04T21:18:02.495Z,99541.00
2019-04-04T21:20:31.986Z,99539.08
2019-04-04T21:23:01.450Z,99553.58
2019-04-04T21:25:31.499Z,99561.68
2019-04-04T21:28:01.172Z,99550.18
2019-04-04T21:30:30.641Z,99538.64
2019-04-04T21:33:00.127Z,99538.09
2019-04-04T21:35:29.662Z,99538.56
2019-04-04T21:37:59.133Z,99544.82
2019-04-04T21:40:28.791Z,99548.38
2019-04-04T21:42:58.451Z,99548.38
2019-04-04T21:45:27.924Z,99554.17
2019-04-04T21:47:57.396Z,99549.52
2019-04-04T21:50:26.865Z,99552.02
2019-04-04T21:52:56.377Z,99549.05
2019-04-04T21:55:25.869Z,99555.66
2019-04-04T21:57:55.340Z,99552.09
2019-04-04T22:00:26.650Z,99542.63
2019-04-04T22:02:56.130Z,99544.88
2019-04-04T22:05:25.663Z,99549.88
2019-04-04T22:07:55.163Z,99548.04
2019-04-04T22:10:24.657Z,99554.18
2019-04-04T22:12:54.123Z,99557.58
2019-04-04T22:15:23.694Z,99567.59
2019-04-04T22:17:53.200Z,99564.15
2019-04-04T22:20:22.801Z,99570.28
2019-04-04T22:22:52.370Z,99561.95
2019-04-04T22:25:22.380Z,99565.58
2019-04-04T22:27:51.868Z,99570.91
2019-04-04T22:30:21.470Z,99570.98
2019-04-04T22:32:50.929Z,99572.77
2019-04-04T22:35:20.379Z,99575.03
2019-04-04T22:37:49.871Z,99577.88
2019-04-04T22:40:19.429Z,99590.61
2019-04-04T22:42:49.144Z,99598.89
2019-04-04T22:45:18.848Z,99603.42
2019-04-04T22:47:48.352Z,99605.45
2019-04-04T22:50:17.991Z,99593.22
2019-04-04T22:52:47.512Z,99594.69
2019-04-04T22:55:16.978Z,99584.64
2019-04-04T22:57:46.530Z,99582.56
2019-04-04T23:00:16.892Z,99580.48
2019-04-04T23:02:46.362Z,99586.61
2019-04-04T23:05:15.873Z,99587.50
2019-04-04T23:07:45.370Z,99589.53
2019-04-04T23:10:15.247Z,99584.13
2019-04-04T23:12:44.847Z,99580.92
2019-04-04T23:15:14.333Z,99585.67
2019-04-04T23:17:45.484Z,99585.20
2019-04-04T23:20:15.344Z,99589.61
2019-04-04T23:22:52.725Z,99590.84
2019-04-04T23:25:16.020Z,99593.34
2019-04-04T23:27:45.495Z,99603.56
2019-04-04T23:30:15.388Z,99605.81
2019-04-04T23:32:44.846Z,99606.70
2019-04-04T23:35:16.644Z,99604.05
2019-04-04T23:37:45.737Z,99602.13
2019-04-04T23:40:15.264Z,99603.50
2019-04-04T23:42:44.703Z,99613.06
2019-04-04T23:45:14.261Z,99618.19
2019-04-04T23:47:43.804Z,99609.20
2019-04-04T23:50:13.663Z,99610.22
2019-04-04T23:52:43.124Z,99617.88
2019-04-04T23:55:12.677Z,99615.62
2019-04-04T23:57:42.128Z,99618.59
